Back to top

Jackson, WY weather

Jackson Hole Airport (AWOS), Jackson, WY: 8/18/2022 02:56
Visibility10 statute milesclear sky
View 7-Day Forecast
Area Summary
Sky/CloudsSky Clear
Weather [last 24 hours]None
Pressure30.34 in.Hg (1028 hPa)
3-hour Pressure Tendency0.02362 in.Hg (0.8 hPa) Increasing, then steady, or increasing then increasing more slowly
Dew Point41 °F (5 °C)
Relative Humidity66.1 %
Temperature52 °F (11.1 °C)red thermometer
Reading TimeMinimum to Maximum Temperature
6-hr ending 8/17@23:5660.1 °F to 87.1 °F (15.6 °C to 30.6 °C)
6-hr ending 8/17@17:5673.9 °F to 87.1 °F (23.3 °C to 30.6 °C)
6-hr ending 8/17@11:5646 °F to 73.9 °F (7.8 °C to 23.3 °C)
6-hr ending 8/17@05:5646.9 °F to 60.1 °F (8.3 °C to 15.6 °C)
24-hr ending 8/18@00:5646 °F to 87.1 °F (7.8 °C to 30.6 °C)
Wind6.9 MPH (6 KT) green arrow pointing 337.5 degrees
Wind FromNorth/Northwest (330 Degrees)
Twilight Begins06:00Sunshine Yesterday
Sunrise06:31N/A
Sunset20:22
Twilight Ends20:52
METARKJAC 180856Z AUTO 33006KT 10SM CLR 11/05 A3034 RMK AO2 SLP205 T01110050 51008
Tags: